createdAt,value
2018-05-04T00:00:26.936Z,7.92
2018-05-04T00:01:26.968Z,7.82
2018-05-04T00:02:27.008Z,7.90
2018-05-04T00:03:27.082Z,7.83
2018-05-04T00:04:27.066Z,7.85
2018-05-04T00:05:27.101Z,7.87
2018-05-04T00:06:27.133Z,7.82
2018-05-04T00:07:27.164Z,7.71
2018-05-04T00:08:27.200Z,7.61
2018-05-04T00:09:27.232Z,7.71
2018-05-04T00:10:27.265Z,7.71
2018-05-04T00:11:27.298Z,7.67
2018-05-04T00:12:27.336Z,7.68
2018-05-04T00:13:27.362Z,7.58
2018-05-04T00:14:27.393Z,7.67
2018-05-04T00:15:27.428Z,7.53
2018-05-04T00:16:27.513Z,7.63
2018-05-04T00:17:27.493Z,7.63
2018-05-04T00:18:27.526Z,7.57
2018-05-04T00:19:27.566Z,7.61
2018-05-04T00:20:27.596Z,7.43
2018-05-04T00:21:27.624Z,7.49
2018-05-04T00:22:27.657Z,7.50
2018-05-04T00:23:27.689Z,7.40
2018-05-04T00:24:27.738Z,7.42
2018-05-04T00:25:27.756Z,7.42
2018-05-04T00:26:27.789Z,7.35
2018-05-04T00:27:27.820Z,7.42
2018-05-04T00:28:27.853Z,7.35
2018-05-04T00:29:27.886Z,7.32
2018-05-04T00:30:27.917Z,7.25
2018-05-04T00:31:27.949Z,7.28
2018-05-04T00:32:27.991Z,7.16
2018-05-04T00:33:28.017Z,7.21
2018-05-04T00:34:28.048Z,7.20
2018-05-04T00:35:28.081Z,7.17
2018-05-04T00:36:28.114Z,7.20
2018-05-04T00:37:28.146Z,7.20
2018-05-04T00:38:28.178Z,7.06
2018-05-04T00:39:28.211Z,7.12
2018-05-04T00:40:28.243Z,7.09
2018-05-04T00:41:28.283Z,7.12
2018-05-04T00:42:28.308Z,7.07
2018-05-04T00:43:28.339Z,6.99
2018-05-04T00:44:28.371Z,6.91
2018-05-04T00:45:28.405Z,6.95
2018-05-04T00:46:28.437Z,6.92
2018-05-04T00:47:28.469Z,6.88
2018-05-04T00:48:28.505Z,6.95
2018-05-04T00:49:28.538Z,6.97
2018-05-04T00:50:28.566Z,6.91
2018-05-04T00:51:28.602Z,6.89
2018-05-04T00:52:28.632Z,6.92
2018-05-04T00:53:28.672Z,6.80
2018-05-04T00:54:28.696Z,6.88
2018-05-04T00:55:28.729Z,6.85
2018-05-04T00:56:28.760Z,6.76
2018-05-04T00:57:28.793Z,6.79
2018-05-04T00:58:28.825Z,6.76
2018-05-04T00:59:28.858Z,6.76
2018-05-04T01:00:28.890Z,6.81
2018-05-04T01:01:28.931Z,6.76
2018-05-04T01:02:28.956Z,6.74
2018-05-04T01:03:28.987Z,6.67
2018-05-04T01:04:29.021Z,6.74
2018-05-04T01:05:29.053Z,6.69
2018-05-04T01:06:29.084Z,6.66
2018-05-04T01:07:29.117Z,6.64
2018-05-04T01:08:29.148Z,6.59
2018-05-04T01:09:29.180Z,6.51
2018-05-04T01:10:29.212Z,6.49
2018-05-04T01:11:29.245Z,6.49
2018-05-04T01:12:29.276Z,6.44
2018-05-04T01:13:29.310Z,6.46
2018-05-04T01:14:29.340Z,6.49
2018-05-04T01:15:29.380Z,6.44
2018-05-04T01:16:29.408Z,6.55
2018-05-04T01:17:29.438Z,6.55
2018-05-04T01:18:29.468Z,6.55
2018-05-04T01:19:29.502Z,6.55
2018-05-04T01:20:29.535Z,6.46
2018-05-04T01:21:29.565Z,6.52
2018-05-04T01:22:29.597Z,6.44
2018-05-04T01:23:29.631Z,6.46
2018-05-04T01:24:29.661Z,6.41
2018-05-04T01:25:29.693Z,6.36
2018-05-04T01:26:29.727Z,6.40
2018-05-04T01:27:29.756Z,6.36
2018-05-04T01:28:29.790Z,6.31
2018-05-04T01:29:29.822Z,6.40
2018-05-04T01:30:29.854Z,6.37
2018-05-04T01:31:29.888Z,6.21
2018-05-04T01:32:29.922Z,6.25
2018-05-04T01:33:29.954Z,6.21
2018-05-04T01:34:29.983Z,6.25
2018-05-04T01:35:30.014Z,6.21
2018-05-04T01:36:30.045Z,6.08
2018-05-04T01:37:30.080Z,6.09
2018-05-04T01:38:30.112Z,6.08
2018-05-04T01:39:30.151Z,6.12
2018-05-04T01:40:30.175Z,6.11
2018-05-04T01:41:30.207Z,5.96
2018-05-04T01:42:30.239Z,6.06
2018-05-04T01:43:30.272Z,6.04
2018-05-04T01:44:30.302Z,6.09
2018-05-04T01:45:30.342Z,5.97
2018-05-04T01:46:30.367Z,5.99
2018-05-04T01:47:30.398Z,5.96
2018-05-04T01:48:30.431Z,5.99
2018-05-04T01:49:30.463Z,5.93
2018-05-04T01:50:30.494Z,5.97
2018-05-04T01:51:30.536Z,5.97
2018-05-04T01:52:30.557Z,5.93
2018-05-04T01:53:30.589Z,5.91
2018-05-04T01:54:30.620Z,5.99
2018-05-04T01:55:30.652Z,5.90
2018-05-04T01:56:30.685Z,5.96
2018-05-04T01:57:30.717Z,5.93
2018-05-04T01:58:30.749Z,5.97
2018-05-04T01:59:30.779Z,5.96
2018-05-04T02:00:30.811Z,5.94
2018-05-04T02:01:30.847Z,5.96
2018-05-04T02:02:30.873Z,5.93
2018-05-04T02:03:30.908Z,5.97
2018-05-04T02:04:30.939Z,5.96
2018-05-04T02:05:30.973Z,6.03
2018-05-04T02:06:31.003Z,6.12
2018-05-04T02:07:31.034Z,6.11
2018-05-04T02:08:31.067Z,6.18
2018-05-04T02:09:31.098Z,6.25
2018-05-04T02:10:31.135Z,6.18
2018-05-04T02:11:31.165Z,6.36
2018-05-04T02:12:31.194Z,6.37
2018-05-04T02:13:31.228Z,6.43
2018-05-04T02:14:31.257Z,6.38
2018-05-04T02:15:31.289Z,6.40
2018-05-04T02:16:31.323Z,6.55
2018-05-04T02:17:31.355Z,6.46
2018-05-04T02:18:31.383Z,6.56
2018-05-04T02:19:31.415Z,6.54
2018-05-04T02:20:31.505Z,6.55
2018-05-04T02:21:31.483Z,6.41
2018-05-04T02:22:31.520Z,6.40
2018-05-04T02:23:31.544Z,6.43
2018-05-04T02:24:31.575Z,6.48
2018-05-04T02:25:31.608Z,6.44
2018-05-04T02:26:31.639Z,6.43
2018-05-04T02:27:31.671Z,6.36
2018-05-04T02:28:31.708Z,6.36
2018-05-04T02:29:31.736Z,6.27
2018-05-04T02:30:31.765Z,6.27
2018-05-04T02:31:31.807Z,6.17
2018-05-04T02:32:31.831Z,6.19
2018-05-04T02:33:31.869Z,6.18
2018-05-04T02:34:31.893Z,6.09
2018-05-04T02:35:31.923Z,6.06
2018-05-04T02:36:31.955Z,6.09
2018-05-04T02:37:31.989Z,6.09
2018-05-04T02:38:32.018Z,6.19
2018-05-04T02:39:32.052Z,6.21
2018-05-04T02:40:32.081Z,6.09
2018-05-04T02:41:32.114Z,6.14
2018-05-04T02:42:32.151Z,6.09
2018-05-04T02:43:32.178Z,6.09
2018-05-04T02:44:32.219Z,6.00
2018-05-04T02:45:32.241Z,6.00
2018-05-04T02:46:32.379Z,5.93
2018-05-04T02:47:32.304Z,5.90
2018-05-04T02:48:32.336Z,5.97
2018-05-04T02:49:32.369Z,5.93
2018-05-04T02:50:32.400Z,5.89
2018-05-04T02:51:32.431Z,5.85
2018-05-04T02:52:32.463Z,5.86
2018-05-04T02:53:32.494Z,5.81
2018-05-04T02:54:32.527Z,5.81
2018-05-04T02:55:32.585Z,5.81
2018-05-04T02:56:32.591Z,5.79
2018-05-04T02:57:32.621Z,5.74
2018-05-04T02:58:32.652Z,5.72
2018-05-04T02:59:32.693Z,5.65
2018-05-04T03:00:32.716Z,5.64
2018-05-04T03:01:32.750Z,5.56
2018-05-04T03:02:32.777Z,5.54
2018-05-04T03:03:32.811Z,5.54
2018-05-04T03:04:32.843Z,5.63
2018-05-04T03:05:32.885Z,5.58
2018-05-04T03:06:32.911Z,5.57
2018-05-04T03:07:32.939Z,5.51
2018-05-04T03:08:32.967Z,5.57
2018-05-04T03:09:33.000Z,5.43
2018-05-04T03:10:33.032Z,5.38
2018-05-04T03:11:33.062Z,5.49
2018-05-04T03:12:33.095Z,5.57
2018-05-04T03:13:33.126Z,5.49
2018-05-04T03:14:33.156Z,5.65
2018-05-04T03:15:33.188Z,5.67
2018-05-04T03:16:33.221Z,5.76
2018-05-04T03:17:33.252Z,5.81
2018-05-04T03:18:33.283Z,5.83
2018-05-04T03:19:33.314Z,5.83
2018-05-04T03:20:33.346Z,5.90
2018-05-04T03:21:33.379Z,5.85
2018-05-04T03:22:33.408Z,5.89
2018-05-04T03:23:33.440Z,5.83
2018-05-04T03:24:33.473Z,5.83
2018-05-04T03:25:33.505Z,5.83
2018-05-04T03:26:33.535Z,5.82
2018-05-04T03:27:33.567Z,5.83
2018-05-04T03:28:33.601Z,5.82
2018-05-04T03:29:33.630Z,5.79
2018-05-04T03:30:33.670Z,5.81
2018-05-04T03:31:33.694Z,5.83
2018-05-04T03:32:33.724Z,5.85
2018-05-04T03:33:33.757Z,5.99
2018-05-04T03:34:33.788Z,5.90
2018-05-04T03:35:33.816Z,5.96
2018-05-04T03:36:33.851Z,5.96
2018-05-04T03:37:33.887Z,5.99
2018-05-04T03:38:33.915Z,5.94
2018-05-04T03:39:34.013Z,5.96
2018-05-04T03:40:33.976Z,5.93
2018-05-04T03:41:34.008Z,6.06
2018-05-04T03:42:34.038Z,6.00
2018-05-04T03:43:34.071Z,6.00
2018-05-04T03:44:34.100Z,6.03
2018-05-04T03:45:34.134Z,6.01
2018-05-04T03:46:34.164Z,6.08
2018-05-04T03:47:34.195Z,6.11
2018-05-04T03:48:34.227Z,6.09
2018-05-04T03:49:34.261Z,6.06
2018-05-04T03:50:34.289Z,6.04
2018-05-04T03:51:34.322Z,6.00
2018-05-04T03:52:34.359Z,5.96
2018-05-04T03:53:34.386Z,5.97
2018-05-04T03:54:34.415Z,6.06
2018-05-04T03:55:34.448Z,6.04
2018-05-04T03:56:34.529Z,6.03
2018-05-04T03:57:34.514Z,6.04
2018-05-04T03:58:34.542Z,6.00
2018-05-04T03:59:34.578Z,6.00
2018-05-04T04:00:34.606Z,6.17
2018-05-04T04:01:34.642Z,6.00
2018-05-04T04:02:34.761Z,6.03
2018-05-04T04:03:34.699Z,6.06
2018-05-04T04:04:34.733Z,6.03
2018-05-04T04:05:34.767Z,6.03
2018-05-04T04:06:34.795Z,6.01
2018-05-04T04:07:34.828Z,5.93
2018-05-04T04:08:34.859Z,6.00
2018-05-04T04:09:34.889Z,6.04
2018-05-04T04:10:34.925Z,6.09
2018-05-04T04:11:34.953Z,6.00
2018-05-04T04:12:34.992Z,6.11
2018-05-04T04:13:35.018Z,6.09
2018-05-04T04:14:35.047Z,6.17
2018-05-04T04:15:35.083Z,6.15
2018-05-04T04:16:35.111Z,6.09
2018-05-04T04:17:35.143Z,6.22
2018-05-04T04:18:35.177Z,6.18
2018-05-04T04:19:35.207Z,6.28
2018-05-04T04:20:35.239Z,6.25
2018-05-04T04:21:35.270Z,6.28
2018-05-04T04:22:35.300Z,6.36
2018-05-04T04:23:35.331Z,6.34
2018-05-04T04:24:35.363Z,6.21
2018-05-04T04:25:35.402Z,6.25
2018-05-04T04:26:35.428Z,6.30
2018-05-04T04:27:35.457Z,6.18
2018-05-04T04:28:35.489Z,6.28
2018-05-04T04:29:35.523Z,6.36
2018-05-04T04:30:35.553Z,6.37
2018-05-04T04:31:35.588Z,6.34
2018-05-04T04:32:35.616Z,6.31
2018-05-04T04:33:35.651Z,6.22
2018-05-04T04:34:35.679Z,6.38
2018-05-04T04:35:35.712Z,6.40
2018-05-04T04:36:35.745Z,6.36
2018-05-04T04:37:35.776Z,6.37
2018-05-04T04:38:35.810Z,6.43
2018-05-04T04:39:35.838Z,6.44
2018-05-04T04:40:35.870Z,6.33
2018-05-04T04:41:35.902Z,6.34
2018-05-04T04:42:35.933Z,6.40
2018-05-04T04:43:35.965Z,6.31
2018-05-04T04:44:35.997Z,6.40
2018-05-04T04:45:36.080Z,6.44
2018-05-04T04:46:36.061Z,6.51
2018-05-04T04:47:36.093Z,6.48
2018-05-04T04:48:36.125Z,6.55
2018-05-04T04:49:36.157Z,6.52
2018-05-04T04:50:36.188Z,6.56
2018-05-04T04:51:36.275Z,6.61
2018-05-04T04:52:36.257Z,6.59
2018-05-04T04:53:36.285Z,6.56
2018-05-04T04:54:36.318Z,6.61
2018-05-04T04:55:36.349Z,6.69
2018-05-04T04:56:36.381Z,6.71
2018-05-04T04:57:36.413Z,6.76
2018-05-04T04:58:36.443Z,6.85
2018-05-04T04:59:36.475Z,6.89
2018-05-04T05:00:36.510Z,6.88
2018-05-04T05:01:36.538Z,6.97
2018-05-04T05:02:36.574Z,7.05
2018-05-04T05:03:36.613Z,7.10
2018-05-04T05:04:36.634Z,7.10
2018-05-04T05:05:36.676Z,7.10
2018-05-04T05:06:36.699Z,7.16
2018-05-04T05:07:36.729Z,7.20
2018-05-04T05:08:36.763Z,7.21
2018-05-04T05:09:36.796Z,7.17
2018-05-04T05:10:36.827Z,7.25
2018-05-04T05:11:36.859Z,7.28
2018-05-04T05:12:36.891Z,7.25
2018-05-04T05:13:36.924Z,7.34
2018-05-04T05:14:36.958Z,7.40
2018-05-04T05:15:36.990Z,7.52
2018-05-04T05:16:37.021Z,7.49
2018-05-04T05:17:37.053Z,7.61
2018-05-04T05:18:37.087Z,7.63
2018-05-04T05:19:37.117Z,7.72
2018-05-04T05:20:37.152Z,7.75
2018-05-04T05:21:37.186Z,7.75
2018-05-04T05:22:37.217Z,7.77
2018-05-04T05:23:37.328Z,7.75
2018-05-04T05:24:37.290Z,7.82
2018-05-04T05:25:37.323Z,7.83
2018-05-04T05:26:37.347Z,7.95
2018-05-04T05:27:37.380Z,7.97
2018-05-04T05:28:37.412Z,8.01
2018-05-04T05:29:37.506Z,8.10
2018-05-04T05:30:37.477Z,8.12
2018-05-04T05:31:37.510Z,8.23
2018-05-04T05:32:37.544Z,8.36
2018-05-04T05:33:37.578Z,8.47
2018-05-04T05:34:37.608Z,8.47
2018-05-04T05:35:37.716Z,8.62
2018-05-04T05:36:37.673Z,8.63
2018-05-04T05:37:37.706Z,8.79
2018-05-04T05:38:37.737Z,8.79
2018-05-04T05:39:37.771Z,8.79
2018-05-04T05:40:37.803Z,8.92
2018-05-04T05:41:37.838Z,8.98
2018-05-04T05:42:37.870Z,9.11
2018-05-04T05:43:37.902Z,9.11
2018-05-04T05:44:37.936Z,9.10
2018-05-04T05:45:37.971Z,9.18
2018-05-04T05:46:38.003Z,9.20
2018-05-04T05:47:38.042Z,9.28
2018-05-04T05:48:38.067Z,9.29
2018-05-04T05:49:38.107Z,9.40
2018-05-04T05:50:38.132Z,9.48
2018-05-04T05:51:38.167Z,9.57
2018-05-04T05:52:38.201Z,9.64
2018-05-04T05:53:38.240Z,9.61
2018-05-04T05:54:38.310Z,9.64
2018-05-04T05:55:38.302Z,9.78
2018-05-04T05:56:38.334Z,9.90
2018-05-04T05:57:38.366Z,9.90
2018-05-04T05:58:38.401Z,9.99
2018-05-04T05:59:38.432Z,10.11
2018-05-04T06:00:38.467Z,10.25
2018-05-04T06:01:38.500Z,10.40
2018-05-04T06:02:38.532Z,10.42
2018-05-04T06:03:38.575Z,10.29
2018-05-04T06:04:38.601Z,10.48
2018-05-04T06:05:38.634Z,10.47
2018-05-04T06:06:38.674Z,10.53
2018-05-04T06:07:38.701Z,10.64
2018-05-04T06:08:38.733Z,10.70
2018-05-04T06:09:38.768Z,10.85
2018-05-04T06:10:38.800Z,10.78
2018-05-04T06:11:38.835Z,10.88
2018-05-04T06:12:38.871Z,10.91
2018-05-04T06:13:38.903Z,11.07
2018-05-04T06:14:38.936Z,11.21
2018-05-04T06:15:38.970Z,11.33
2018-05-04T06:16:39.003Z,11.29
2018-05-04T06:17:39.040Z,11.42
2018-05-04T06:18:39.072Z,11.51
2018-05-04T06:19:39.105Z,11.54
2018-05-04T06:20:39.141Z,11.62
2018-05-04T06:21:39.175Z,11.73
2018-05-04T06:22:39.208Z,11.78
2018-05-04T06:23:39.244Z,11.86
2018-05-04T06:24:39.277Z,11.98
2018-05-04T06:25:39.325Z,11.99
2018-05-04T06:26:39.344Z,12.05
2018-05-04T06:27:39.379Z,12.20
2018-05-04T06:28:39.414Z,12.23
2018-05-04T06:29:39.499Z,12.29
2018-05-04T06:30:39.484Z,12.46
2018-05-04T06:31:39.519Z,12.52
2018-05-04T06:32:39.552Z,12.54
2018-05-04T06:33:39.591Z,12.59
2018-05-04T06:34:39.622Z,12.62
2018-05-04T06:35:39.656Z,12.72
2018-05-04T06:36:39.691Z,12.82
2018-05-04T06:37:39.726Z,12.97
2018-05-04T06:38:39.970Z,12.90
2018-05-04T06:39:40.078Z,12.97
2018-05-04T06:40:39.936Z,13.00
2018-05-04T06:41:39.865Z,13.03
2018-05-04T06:42:39.899Z,13.07
2018-05-04T06:43:39.935Z,13.01
2018-05-04T06:44:39.981Z,13.15
2018-05-04T06:45:40.058Z,13.28
2018-05-04T06:46:40.039Z,13.33
2018-05-04T06:47:40.075Z,13.36
2018-05-04T06:48:40.175Z,13.41
2018-05-04T06:49:40.145Z,13.45
2018-05-04T06:50:40.180Z,13.45
2018-05-04T06:51:40.212Z,13.59
2018-05-04T06:52:40.416Z,13.69
2018-05-04T06:53:40.285Z,13.66
2018-05-04T06:54:40.322Z,13.67
2018-05-04T06:55:40.360Z,13.64
2018-05-04T06:56:40.393Z,13.71
2018-05-04T06:57:40.426Z,13.71
2018-05-04T06:58:40.459Z,13.77
2018-05-04T06:59:40.497Z,13.88
2018-05-04T07:00:40.530Z,13.87
2018-05-04T07:01:40.568Z,13.89
2018-05-04T07:02:40.603Z,13.81
2018-05-04T07:03:40.640Z,13.91
2018-05-04T07:04:40.673Z,13.92
2018-05-04T07:05:40.711Z,13.97
2018-05-04T07:06:40.744Z,14.02
2018-05-04T07:07:40.781Z,13.92
2018-05-04T07:08:40.817Z,14.06
2018-05-04T07:09:40.851Z,14.06
2018-05-04T07:10:40.886Z,14.17
2018-05-04T07:11:40.921Z,14.28
2018-05-04T07:12:40.958Z,14.27
2018-05-04T07:13:40.993Z,14.35
2018-05-04T07:14:41.033Z,14.33
2018-05-04T07:15:41.066Z,14.43
2018-05-04T07:16:41.118Z,14.50
2018-05-04T07:17:41.137Z,14.61
2018-05-04T07:18:41.173Z,14.52
2018-05-04T07:19:41.208Z,14.54
2018-05-04T07:20:41.246Z,14.52
2018-05-04T07:21:41.281Z,14.51
2018-05-04T07:22:41.315Z,14.37
2018-05-04T07:23:41.351Z,14.40
2018-05-04T07:24:41.385Z,14.36
2018-05-04T07:25:41.432Z,14.47
2018-05-04T07:26:41.465Z,14.64
2018-05-04T07:27:41.494Z,14.64
2018-05-04T07:28:41.588Z,14.70
2018-05-04T07:29:41.566Z,14.81
2018-05-04T07:30:41.602Z,14.94
2018-05-04T07:31:41.637Z,14.99
2018-05-04T07:32:41.679Z,15.02
2018-05-04T07:33:41.718Z,15.11
2018-05-04T07:34:41.745Z,15.02
2018-05-04T07:35:41.781Z,15.01
2018-05-04T07:36:41.817Z,15.09
2018-05-04T07:37:41.856Z,14.99
2018-05-04T07:38:41.889Z,14.88
2018-05-04T07:39:41.928Z,15.06
2018-05-04T07:40:41.962Z,15.02
2018-05-04T07:41:41.998Z,15.02
2018-05-04T07:42:42.042Z,15.11
2018-05-04T07:43:42.070Z,15.13
2018-05-04T07:44:42.107Z,15.17
2018-05-04T07:45:42.169Z,15.28
2018-05-04T07:46:42.181Z,15.27
2018-05-04T07:47:42.217Z,15.28
2018-05-04T07:48:42.256Z,15.35
2018-05-04T07:49:42.288Z,15.34
2018-05-04T07:50:42.329Z,15.34
2018-05-04T07:51:42.362Z,15.29
2018-05-04T07:52:42.396Z,15.36
2018-05-04T07:53:42.434Z,15.38
2018-05-04T07:54:42.470Z,15.32
2018-05-04T07:55:42.507Z,15.41
2018-05-04T07:56:42.543Z,15.46
2018-05-04T07:57:42.581Z,15.35
2018-05-04T07:58:42.625Z,15.32
2018-05-04T07:59:42.659Z,15.38
2018-05-04T08:00:42.689Z,15.35
2018-05-04T08:01:42.726Z,15.35
2018-05-04T08:02:42.760Z,15.46
2018-05-04T08:03:42.825Z,15.41
2018-05-04T08:04:42.833Z,15.56
2018-05-04T08:05:42.870Z,15.51
2018-05-04T08:06:43.008Z,15.62
2018-05-04T08:07:42.944Z,15.59
2018-05-04T08:08:42.981Z,15.68
2018-05-04T08:09:43.020Z,15.83
2018-05-04T08:10:43.053Z,15.92
2018-05-04T08:11:43.153Z,15.84
2018-05-04T08:12:43.127Z,15.76
2018-05-04T08:13:43.174Z,15.89
2018-05-04T08:14:43.204Z,15.78
2018-05-04T08:15:43.237Z,15.86
2018-05-04T08:16:43.279Z,15.89
2018-05-04T08:17:43.312Z,15.78
2018-05-04T08:18:43.355Z,15.80
2018-05-04T08:19:43.384Z,15.76
2018-05-04T08:20:43.422Z,15.75
2018-05-04T08:21:43.458Z,15.82
2018-05-04T08:22:43.497Z,15.96
2018-05-04T08:23:43.531Z,15.82
2018-05-04T08:24:43.570Z,15.84
2018-05-04T08:25:43.605Z,15.65
2018-05-04T08:26:43.643Z,15.67
2018-05-04T08:27:43.678Z,15.65
2018-05-04T08:28:43.715Z,15.67
2018-05-04T08:29:43.751Z,15.69
2018-05-04T08:30:43.788Z,15.57
2018-05-04T08:31:43.825Z,15.60
2018-05-04T08:32:43.862Z,15.60
2018-05-04T08:33:43.898Z,15.59
2018-05-04T08:34:43.934Z,15.56
2018-05-04T08:35:43.971Z,15.82
2018-05-04T08:36:44.009Z,15.65
2018-05-04T08:37:44.045Z,15.84
2018-05-04T08:38:44.081Z,15.80
2018-05-04T08:39:44.117Z,15.72
2018-05-04T08:40:44.180Z,15.71
2018-05-04T08:41:44.193Z,15.76
2018-05-04T08:42:44.228Z,15.78
2018-05-04T08:43:44.277Z,15.74
2018-05-04T08:44:44.306Z,15.68
2018-05-04T08:45:44.345Z,15.68
2018-05-04T08:46:44.413Z,15.80
2018-05-04T08:47:44.414Z,15.69
2018-05-04T08:48:44.456Z,15.68
2018-05-04T08:49:44.488Z,15.83
2018-05-04T08:50:44.524Z,15.83
2018-05-04T08:51:44.559Z,15.87
2018-05-04T08:52:44.600Z,15.89
2018-05-04T08:53:44.633Z,15.83
2018-05-04T08:54:44.669Z,15.86
2018-05-04T08:55:44.708Z,15.89
2018-05-04T08:56:44.743Z,15.93
2018-05-04T08:57:44.781Z,16.01
2018-05-04T08:58:44.816Z,16.05
2018-05-04T08:59:44.859Z,16.07
2018-05-04T09:00:44.892Z,15.97
2018-05-04T09:01:44.928Z,16.04
2018-05-04T09:02:44.962Z,16.14
2018-05-04T09:03:45.004Z,16.11
2018-05-04T09:04:45.036Z,16.11
2018-05-04T09:05:45.178Z,16.14
2018-05-04T09:06:45.121Z,16.07
2018-05-04T09:07:45.147Z,15.97
2018-05-04T09:08:45.183Z,16.14
2018-05-04T09:09:45.221Z,15.93
2018-05-04T09:10:45.258Z,16.04
2018-05-04T09:11:45.294Z,16.14
2018-05-04T09:12:45.379Z,16.14
2018-05-04T09:13:45.369Z,16.25
2018-05-04T09:14:45.405Z,16.24
2018-05-04T09:15:45.442Z,16.31
2018-05-04T09:16:45.480Z,16.38
2018-05-04T09:17:45.516Z,16.49
2018-05-04T09:18:45.553Z,16.49
2018-05-04T09:19:45.640Z,16.50
2018-05-04T09:20:45.636Z,16.61
2018-05-04T09:21:45.670Z,16.61
2018-05-04T09:22:45.729Z,16.70
2018-05-04T09:23:45.748Z,16.57
2018-05-04T09:24:45.777Z,16.67
2018-05-04T09:25:45.818Z,16.61
2018-05-04T09:26:45.849Z,16.68
2018-05-04T09:27:45.887Z,16.68
2018-05-04T09:28:45.926Z,16.75
2018-05-04T09:29:45.961Z,16.76
2018-05-04T09:30:46.059Z,16.73
2018-05-04T09:31:46.035Z,16.61
2018-05-04T09:32:46.124Z,16.67
2018-05-04T09:33:46.110Z,16.63
2018-05-04T09:34:46.154Z,16.61
2018-05-04T09:35:46.183Z,16.68
2018-05-04T09:36:46.221Z,16.52
2018-05-04T09:37:46.261Z,16.50
2018-05-04T09:38:46.295Z,16.34
2018-05-04T09:39:46.332Z,16.42
2018-05-04T09:40:46.370Z,16.49
2018-05-04T09:41:46.408Z,16.41
2018-05-04T09:42:46.445Z,16.45
2018-05-04T09:43:46.724Z,16.48
2018-05-04T09:44:46.520Z,16.42
2018-05-04T09:45:46.560Z,16.42
2018-05-04T09:46:46.592Z,16.45
2018-05-04T09:47:46.636Z,16.67
2018-05-04T09:48:46.673Z,16.56
2018-05-04T09:49:46.705Z,16.70
2018-05-04T09:50:46.743Z,16.76
2018-05-04T09:51:46.780Z,16.79
2018-05-04T09:52:46.816Z,16.78
2018-05-04T09:53:46.855Z,16.83
2018-05-04T09:54:46.891Z,16.82
2018-05-04T09:55:46.929Z,16.76
2018-05-04T09:56:46.969Z,16.66
2018-05-04T09:57:47.003Z,16.70
2018-05-04T09:58:47.042Z,16.56
2018-05-04T09:59:47.078Z,16.58
2018-05-04T10:00:47.120Z,16.57
2018-05-04T10:01:47.161Z,16.63
2018-05-04T10:02:47.196Z,16.64
2018-05-04T10:03:47.227Z,16.63
2018-05-04T10:04:47.265Z,16.75
2018-05-04T10:05:47.303Z,16.78
2018-05-04T10:06:47.344Z,16.70
2018-05-04T10:07:47.375Z,16.63
2018-05-04T10:08:47.423Z,16.68
2018-05-04T10:09:47.450Z,16.73
2018-05-04T10:10:47.487Z,16.67
2018-05-04T10:11:47.524Z,16.67
2018-05-04T10:12:47.612Z,16.71
2018-05-04T10:13:47.599Z,16.82
2018-05-04T10:14:47.636Z,16.79
2018-05-04T10:15:47.673Z,16.82
2018-05-04T10:16:47.712Z,16.89
2018-05-04T10:17:47.751Z,16.91
2018-05-04T10:18:47.787Z,17.00
2018-05-04T10:19:47.825Z,17.01
2018-05-04T10:20:47.867Z,17.08
2018-05-04T10:21:47.899Z,17.18
2018-05-04T10:22:47.935Z,17.15
2018-05-04T10:23:47.972Z,17.19
2018-05-04T10:24:48.010Z,17.21
2018-05-04T10:25:48.047Z,17.28
2018-05-04T10:26:48.119Z,17.34
2018-05-04T10:27:48.130Z,17.33
2018-05-04T10:28:48.160Z,17.28
2018-05-04T10:29:48.199Z,17.25
2018-05-04T10:30:48.235Z,17.23
2018-05-04T10:31:48.273Z,17.34
2018-05-04T10:32:48.315Z,17.28
2018-05-04T10:33:48.347Z,17.30
2018-05-04T10:34:48.388Z,17.40
2018-05-04T10:35:48.425Z,17.52
2018-05-04T10:36:48.461Z,17.56
2018-05-04T10:37:48.498Z,17.59
2018-05-04T10:38:48.589Z,17.71
2018-05-04T10:39:48.574Z,17.74
2018-05-04T10:40:48.611Z,17.74
2018-05-04T10:41:48.649Z,17.51
2018-05-04T10:42:48.687Z,17.23
2018-05-04T10:43:48.723Z,17.21
2018-05-04T10:44:48.761Z,17.22
2018-05-04T10:45:48.799Z,17.19
2018-05-04T10:46:48.836Z,17.28
2018-05-04T10:47:48.874Z,17.15
2018-05-04T10:48:48.911Z,17.18
2018-05-04T10:49:48.951Z,17.30
2018-05-04T10:50:48.987Z,17.19
2018-05-04T10:51:49.024Z,17.21
2018-05-04T10:52:49.064Z,17.31
2018-05-04T10:53:49.100Z,17.19
2018-05-04T10:54:49.138Z,17.30
2018-05-04T10:55:49.179Z,17.40
2018-05-04T10:56:49.218Z,17.51
2018-05-04T10:57:49.252Z,17.41
2018-05-04T10:58:49.289Z,17.55
2018-05-04T10:59:49.342Z,17.63
2018-05-04T11:00:49.364Z,17.68
2018-05-04T11:01:49.402Z,17.66
2018-05-04T11:02:49.441Z,17.74
2018-05-04T11:03:49.477Z,17.75
2018-05-04T11:04:49.516Z,17.68
2018-05-04T11:05:49.553Z,17.72
2018-05-04T11:06:49.590Z,17.41
2018-05-04T11:07:49.629Z,17.46
2018-05-04T11:08:49.669Z,17.46
2018-05-04T11:09:49.707Z,17.52
2018-05-04T11:10:49.742Z,17.56
2018-05-04T11:11:49.823Z,17.62
2018-05-04T11:12:49.835Z,17.71
2018-05-04T11:13:49.855Z,17.66
2018-05-04T11:14:49.894Z,17.63
2018-05-04T11:15:49.933Z,17.66
2018-05-04T11:16:49.978Z,17.66
2018-05-04T11:17:50.009Z,17.72
2018-05-04T11:18:50.047Z,17.74
2018-05-04T11:19:50.085Z,17.48
2018-05-04T11:20:50.122Z,17.46
2018-05-04T11:21:50.159Z,17.51
2018-05-04T11:22:50.199Z,17.63
2018-05-04T11:23:50.238Z,17.56
2018-05-04T11:24:50.274Z,17.58
2018-05-04T11:25:50.312Z,17.59
2018-05-04T11:26:50.349Z,17.64
2018-05-04T11:27:50.392Z,17.68
2018-05-04T11:28:50.426Z,17.74
2018-05-04T11:29:50.463Z,17.84
2018-05-04T11:30:50.579Z,17.87
2018-05-04T11:31:50.549Z,17.92
2018-05-04T11:32:50.589Z,17.89
2018-05-04T11:33:50.617Z,18.02
2018-05-04T11:34:50.665Z,17.84
2018-05-04T11:35:50.691Z,17.59
2018-05-04T11:36:50.733Z,17.59
2018-05-04T11:37:50.769Z,17.51
2018-05-04T11:38:50.876Z,17.41
2018-05-04T11:39:50.845Z,17.48
2018-05-04T11:40:50.883Z,17.51
2018-05-04T11:41:50.931Z,17.63
2018-05-04T11:42:50.958Z,17.63
2018-05-04T11:43:50.997Z,17.64
2018-05-04T11:44:51.036Z,17.71
2018-05-04T11:45:51.077Z,17.81
2018-05-04T11:46:51.108Z,17.79
2018-05-04T11:47:51.148Z,17.78
2018-05-04T11:48:51.186Z,17.92
2018-05-04T11:49:51.224Z,17.92
2018-05-04T11:50:51.263Z,17.95
2018-05-04T11:51:51.300Z,17.93
2018-05-04T11:52:51.346Z,17.99
2018-05-04T11:53:51.377Z,17.95
2018-05-04T11:54:51.415Z,18.00
2018-05-04T11:55:51.459Z,18.00
2018-05-04T11:56:51.491Z,17.96
2018-05-04T11:57:51.534Z,18.07
2018-05-04T11:58:51.571Z,18.02
2018-05-04T11:59:51.663Z,18.02
2018-05-04T12:00:51.643Z,18.02
2018-05-04T12:01:51.691Z,18.02
2018-05-04T12:02:51.720Z,18.00
2018-05-04T12:03:51.767Z,18.11
2018-05-04T12:04:51.854Z,18.02
2018-05-04T12:05:51.843Z,18.00
2018-05-04T12:06:51.872Z,17.89
2018-05-04T12:07:51.912Z,17.71
2018-05-04T12:08:51.951Z,17.74
2018-05-04T12:09:51.989Z,17.78
2018-05-04T12:10:52.091Z,17.87
2018-05-04T12:11:52.074Z,17.96
2018-05-04T12:12:52.104Z,17.93
2018-05-04T12:13:52.141Z,18.02
2018-05-04T12:14:52.179Z,18.00
2018-05-04T12:15:52.220Z,18.15
2018-05-04T12:16:52.254Z,18.25
2018-05-04T12:17:52.293Z,18.36
2018-05-04T12:18:52.331Z,18.35
2018-05-04T12:19:52.381Z,18.39
2018-05-04T12:20:52.411Z,18.32
2018-05-04T12:21:52.447Z,18.29
2018-05-04T12:22:52.581Z,18.30
2018-05-04T12:23:52.523Z,18.20
2018-05-04T12:24:52.562Z,18.25
2018-05-04T12:25:52.601Z,18.23
2018-05-04T12:26:52.638Z,18.30
2018-05-04T12:27:52.678Z,18.33
2018-05-04T12:28:52.717Z,18.41
2018-05-04T12:29:52.790Z,18.52
2018-05-04T12:30:52.792Z,18.54
2018-05-04T12:31:52.832Z,18.58
2018-05-04T12:32:52.870Z,18.67
2018-05-04T12:33:52.907Z,18.63
2018-05-04T12:34:52.948Z,18.69
2018-05-04T12:35:52.998Z,18.78
2018-05-04T12:36:53.029Z,18.69
2018-05-04T12:37:53.068Z,18.76
2018-05-04T12:38:53.105Z,18.76
2018-05-04T12:39:53.140Z,18.85
2018-05-04T12:40:53.180Z,18.88
2018-05-04T12:41:53.219Z,18.91
2018-05-04T12:42:53.259Z,18.90
2018-05-04T12:43:53.294Z,18.87
2018-05-04T12:44:53.333Z,18.87
2018-05-04T12:45:53.372Z,18.87
2018-05-04T12:46:53.413Z,18.76
2018-05-04T12:47:53.448Z,18.76
2018-05-04T12:48:53.487Z,18.70
2018-05-04T12:49:53.526Z,18.81
2018-05-04T12:50:53.564Z,18.85
2018-05-04T12:51:53.603Z,18.85
2018-05-04T12:52:53.644Z,18.94
2018-05-04T12:53:53.683Z,18.87
2018-05-04T12:54:53.728Z,18.90
2018-05-04T12:55:53.769Z,18.95
2018-05-04T12:56:53.799Z,18.94
2018-05-04T12:57:53.837Z,19.04
2018-05-04T12:58:53.881Z,19.06
2018-05-04T12:59:53.918Z,18.90
2018-05-04T13:00:53.954Z,18.76
2018-05-04T13:01:54.045Z,18.67
2018-05-04T13:02:54.034Z,18.55
2018-05-04T13:03:54.070Z,18.48
2018-05-04T13:04:54.110Z,18.52